Time;durP1;ratioP1;P1;durP2;ratioP2;P2;SDS_P1;SDS_P2;PMS_P1;PMS_P2;Temp;Humidity;BMP_temperature;BMP_pressure;BME280_temperature;BME280_humidity;BME280_pressure;Samples;Min_cycle;Max_cycle;Signal;HPM_P1;HPM_P2
2022/11/24 00:02:06;;;;;;;415.60;153.57;;;;;;;-142.25;100.00;58004.16;4992941;28;20110;-61
2022/11/24 00:04:31;;;;;;;417.70;151.40;;;;;;;-142.25;100.00;58004.16;4993923;28;20057;-63
2022/11/24 00:06:57;;;;;;;416.50;154.30;;;;;;;-142.25;100.00;58004.16;4991774;28;20043;-62
2022/11/24 00:09:23;;;;;;;416.63;153.60;;;;;;;-142.25;100.00;58004.16;4992883;28;20046;-62
2022/11/24 00:11:48;;;;;;;414.47;147.97;;;;;;;-142.25;100.00;58004.16;4991672;28;20474;-62
2022/11/24 00:14:14;;;;;;;415.20;151.40;;;;;;;-142.25;100.00;58004.16;4992256;28;20080;-62
2022/11/24 00:16:40;;;;;;;411.53;146.87;;;;;;;-142.25;100.00;58004.16;4974431;28;20050;-61
2022/11/24 00:19:08;;;;;;;414.73;151.80;;;;;;;-142.25;100.00;58004.16;4992661;28;20035;-61
2022/11/24 00:21:35;;;;;;;414.40;150.63;;;;;;;-142.25;100.00;58004.16;4987455;28;20034;-63
2022/11/24 00:24:01;;;;;;;414.13;152.80;;;;;;;-142.25;100.00;58004.16;4984971;28;20661;-62
2022/11/24 00:26:28;;;;;;;416.33;155.10;;;;;;;-142.25;100.00;58004.16;4986408;28;20376;-63
2022/11/24 00:28:57;;;;;;;414.43;151.90;;;;;;;-142.25;100.00;58004.16;4990304;28;20049;-61
2022/11/24 00:31:28;;;;;;;413.00;148.60;;;;;;;-142.25;100.00;58004.16;4992874;28;20297;-62
2022/11/24 00:33:56;;;;;;;411.57;147.90;;;;;;;-142.25;100.00;58004.16;4993171;28;20281;-62
2022/11/24 00:36:25;;;;;;;416.23;164.20;;;;;;;-142.25;100.00;58004.16;4989919;28;20289;-61
2022/11/24 00:38:58;;;;;;;412.47;150.07;;;;;;;-142.25;100.00;58004.16;4969474;28;20301;-62
2022/11/24 00:41:26;;;;;;;414.30;152.67;;;;;;;-142.25;100.00;58004.16;4991318;28;20365;-62
2022/11/24 00:43:52;;;;;;;415.73;148.67;;;;;;;-142.25;100.00;58004.16;4991475;28;20305;-63
2022/11/24 00:46:18;;;;;;;415.30;153.40;;;;;;;-142.25;100.00;58004.16;4990156;28;20269;-62
2022/11/24 00:48:45;;;;;;;411.37;149.07;;;;;;;-142.25;100.00;58004.16;4989837;28;20758;-62
2022/11/24 00:51:12;;;;;;;415.13;152.77;;;;;;;-142.25;100.00;58004.16;4997735;28;20866;-61
2022/11/24 00:53:38;;;;;;;412.07;147.83;;;;;;;-142.25;100.00;58004.16;4986466;28;20769;-61
2022/11/24 00:56:05;;;;;;;411.93;146.00;;;;;;;-142.25;100.00;58004.16;4990439;28;20282;-62
2022/11/24 00:58:31;;;;;;;412.90;143.60;;;;;;;-142.25;100.00;58004.16;4991899;28;20096;-61
2022/11/24 01:01:06;;;;;;;415.70;153.83;;;;;;;-142.25;100.00;58004.16;4988865;28;20304;-61
2022/11/24 01:03:33;;;;;;;409.13;142.63;;;;;;;-142.25;100.00;58004.16;4991800;28;20289;-62
2022/11/24 01:06:17;;;;;;;415.00;149.20;;;;;;;-142.25;100.00;58004.16;4988294;28;20088;-62
2022/11/24 01:08:43;;;;;;;411.87;144.37;;;;;;;-142.25;100.00;58004.16;5000302;28;20316;-62
2022/11/24 01:11:12;;;;;;;411.43;147.87;;;;;;;-142.25;100.00;58004.16;4991447;28;20277;-61
2022/11/24 01:13:39;;;;;;;413.47;150.23;;;;;;;-142.25;100.00;58004.16;4992622;28;20286;-63
2022/11/24 01:16:05;;;;;;;411.60;148.60;;;;;;;-142.25;100.00;58004.16;4987959;28;20328;-65
2022/11/24 01:18:31;;;;;;;415.47;150.03;;;;;;;-142.25;100.00;58004.16;4990806;28;20298;-62
2022/11/24 01:20:57;;;;;;;413.57;147.80;;;;;;;-142.25;100.00;58004.16;4990900;28;20285;-62
2022/11/24 01:23:23;;;;;;;412.53;150.37;;;;;;;-142.25;100.00;58004.16;4990475;28;20053;-64
2022/11/24 01:25:48;;;;;;;412.97;146.80;;;;;;;-142.25;100.00;58004.16;4989649;28;20635;-62
2022/11/24 01:28:14;;;;;;;416.50;151.23;;;;;;;-142.25;100.00;58004.16;4990275;28;20081;-61
2022/11/24 01:30:40;;;;;;;414.90;148.93;;;;;;;-142.25;100.00;58004.16;4991197;28;20050;-62
2022/11/24 01:33:05;;;;;;;414.83;150.23;;;;;;;-142.25;100.00;58004.16;4991283;28;20046;-61
2022/11/24 01:35:31;;;;;;;415.00;149.47;;;;;;;-142.25;100.00;58004.16;4990495;28;20713;-63
2022/11/24 01:37:57;;;;;;;415.33;154.40;;;;;;;-142.25;100.00;58004.16;4989001;28;20050;-61
2022/11/24 01:40:22;;;;;;;416.37;146.70;;;;;;;-142.25;100.00;58004.16;4991076;28;20046;-62
2022/11/24 01:42:50;;;;;;;412.70;146.33;;;;;;;-142.25;100.00;58004.16;4990561;28;20126;-62
2022/11/24 01:45:46;;;;;;;412.43;146.20;;;;;;;-142.25;100.00;58004.16;4990350;28;20049;-62
2022/11/24 01:48:27;;;;;;;412.95;145.73;;;;;;;-142.25;100.00;58004.16;4970792;28;20421;-61
2022/11/24 01:51:05;;;;;;;413.17;144.00;;;;;;;-142.25;100.00;58004.16;5005032;28;20038;-62
2022/11/24 01:53:32;;;;;;;413.33;147.40;;;;;;;-142.25;100.00;58004.16;4990991;28;20282;-61
2022/11/24 01:55:58;;;;;;;411.70;144.00;;;;;;;-142.25;100.00;58004.16;4989336;28;20307;-64
2022/11/24 01:58:29;;;;;;;412.73;151.40;;;;;;;-142.25;100.00;58004.16;4986089;28;20239;-61
2022/11/24 02:00:55;;;;;;;414.63;150.30;;;;;;;-142.25;100.00;58004.16;4983810;28;20666;-62
2022/11/24 02:03:27;;;;;;;412.33;147.03;;;;;;;-142.25;100.00;58004.16;5004580;28;20301;-61
2022/11/24 02:06:01;;;;;;;413.90;146.77;;;;;;;-142.25;100.00;58004.16;4988754;28;20122;-62
2022/11/24 02:08:38;;;;;;;415.65;147.77;;;;;;;-142.25;100.00;58004.16;5003904;28;20281;-63
2022/11/24 02:11:04;;;;;;;413.23;144.80;;;;;;;-142.25;100.00;58004.16;4989081;28;20062;-63
2022/11/24 02:13:33;;;;;;;413.77;147.93;;;;;;;-142.25;100.00;58004.16;5003896;28;20771;-63
2022/11/24 02:15:59;;;;;;;414.17;146.23;;;;;;;-142.25;100.00;58004.16;4989551;28;20319;-62
2022/11/24 02:18:25;;;;;;;414.87;149.90;;;;;;;-142.25;100.00;58004.16;4987630;28;20384;-63
2022/11/24 02:20:50;;;;;;;414.20;147.43;;;;;;;-142.25;100.00;58004.16;4989197;28;20664;-62
2022/11/24 02:23:23;;;;;;;415.83;150.07;;;;;;;-142.25;100.00;58004.16;5004749;28;20537;-62
2022/11/24 02:26:01;;;;;;;413.33;145.87;;;;;;;-142.25;100.00;58004.16;4988432;28;20560;-62
2022/11/24 02:28:31;;;;;;;414.67;146.57;;;;;;;-142.25;100.00;58004.16;4987683;28;20290;-62
2022/11/24 02:30:59;;;;;;;412.83;139.67;;;;;;;-142.25;100.00;58004.16;4990039;28;20324;-62
2022/11/24 02:33:25;;;;;;;412.73;143.53;;;;;;;-142.25;100.00;58004.16;4989124;28;20637;-63
2022/11/24 02:35:51;;;;;;;416.23;151.40;;;;;;;-142.25;100.00;58004.16;4986657;28;20787;-62
2022/11/24 02:38:17;;;;;;;413.57;147.77;;;;;;;-142.25;100.00;58004.16;4989429;28;20297;-63
2022/11/24 02:40:47;;;;;;;410.97;140.50;;;;;;;-142.25;100.00;58004.16;4989515;28;20696;-62
2022/11/24 02:43:20;;;;;;;412.00;144.27;;;;;;;-142.25;100.00;58004.16;4988964;28;20054;-63
2022/11/24 02:45:46;;;;;;;414.20;146.70;;;;;;;-142.25;100.00;58004.16;4988680;28;20716;-62
2022/11/24 02:48:14;;;;;;;411.33;144.60;;;;;;;-142.25;100.00;58004.16;4987766;28;20289;-62
2022/11/24 02:50:39;;;;;;;416.20;149.27;;;;;;;-142.25;100.00;58004.16;4989361;28;20058;-61
2022/11/24 02:53:05;;;;;;;413.87;147.73;;;;;;;-142.25;100.00;58004.16;4989602;28;20328;-62
2022/11/24 02:55:30;;;;;;;413.77;147.70;;;;;;;-142.25;100.00;58004.16;4988934;28;20058;-62
2022/11/24 02:57:56;;;;;;;414.93;144.67;;;;;;;-142.25;100.00;58004.16;4988691;28;20668;-61
2022/11/24 03:00:22;;;;;;;417.10;151.23;;;;;;;-142.25;100.00;58004.16;4990391;28;20591;-62
2022/11/24 03:02:47;;;;;;;414.93;147.50;;;;;;;-142.25;100.00;58004.16;4988150;28;20505;-62
2022/11/24 03:05:14;;;;;;;413.90;145.73;;;;;;;-142.25;100.00;58004.16;4988296;28;20046;-62
2022/11/24 03:07:39;;;;;;;413.27;146.57;;;;;;;-142.25;100.00;58004.16;4990257;28;20347;-61
2022/11/24 03:10:05;;;;;;;415.43;150.47;;;;;;;-142.25;100.00;58004.16;4990298;28;20509;-61
2022/11/24 03:12:31;;;;;;;414.80;149.37;;;;;;;-142.25;100.00;58004.16;4989211;28;20442;-61
2022/11/24 03:14:56;;;;;;;416.07;146.93;;;;;;;-142.25;100.00;58004.16;4989857;28;20141;-61
2022/11/24 03:17:22;;;;;;;414.03;148.93;;;;;;;-142.25;100.00;58004.16;4987153;28;20043;-61
2022/11/24 03:19:48;;;;;;;414.13;152.17;;;;;;;-142.25;100.00;58004.16;4985845;28;20494;-61
2022/11/24 03:22:13;;;;;;;415.97;150.77;;;;;;;-142.25;100.00;58004.16;4999069;28;20141;-61
2022/11/24 03:24:39;;;;;;;411.43;144.50;;;;;;;-142.25;100.00;58004.16;4989896;28;20047;-60
2022/11/24 03:27:05;;;;;;;409.93;139.93;;;;;;;-142.25;100.00;58004.16;4989837;28;20623;-61
2022/11/24 03:29:30;;;;;;;410.90;141.33;;;;;;;-142.25;100.00;58004.16;4986927;28;20386;-63
2022/11/24 03:31:57;;;;;;;412.27;140.80;;;;;;;-142.25;100.00;58004.16;4988820;28;20042;-61
2022/11/24 03:34:23;;;;;;;408.70;137.03;;;;;;;-142.25;100.00;58004.16;4990207;28;20046;-64
2022/11/24 03:36:49;;;;;;;414.40;146.73;;;;;;;-142.25;100.00;58004.16;4987247;28;20720;-62
2022/11/24 03:39:14;;;;;;;411.57;141.50;;;;;;;-142.25;100.00;58004.16;4987984;28;20615;-61
2022/11/24 03:41:40;;;;;;;411.53;141.00;;;;;;;-142.25;100.00;58004.16;5005414;28;20042;-60
2022/11/24 03:44:05;;;;;;;411.43;141.53;;;;;;;-142.25;100.00;58004.16;4989933;28;20469;-60
2022/11/24 03:46:32;;;;;;;414.10;141.20;;;;;;;-142.25;100.00;58004.16;4994454;28;20046;-61
2022/11/24 03:48:57;;;;;;;409.87;140.17;;;;;;;-142.25;100.00;58004.16;5008929;28;20078;-62
2022/11/24 03:51:23;;;;;;;409.83;139.10;;;;;;;-142.25;100.00;58004.16;4991902;28;20776;-62
2022/11/24 03:53:49;;;;;;;411.23;145.47;;;;;;;-142.25;100.00;58004.16;4992815;28;20053;-61
2022/11/24 03:56:15;;;;;;;408.73;137.43;;;;;;;-142.25;100.00;58004.16;4993022;28;20042;-62
2022/11/24 03:58:41;;;;;;;409.73;141.27;;;;;;;-142.25;100.00;58004.16;4995812;28;20628;-62
2022/11/24 04:01:06;;;;;;;409.07;137.40;;;;;;;-142.25;100.00;58004.16;5008064;28;20322;-62
2022/11/24 04:03:32;;;;;;;409.63;138.30;;;;;;;-142.25;100.00;58004.16;4994847;28;20050;-61
2022/11/24 04:05:58;;;;;;;407.93;138.40;;;;;;;-142.25;100.00;58004.16;4990058;28;20043;-62
2022/11/24 04:08:24;;;;;;;409.33;138.23;;;;;;;-142.25;100.00;58004.16;5010829;28;20548;-61
2022/11/24 04:10:52;;;;;;;405.03;135.13;;;;;;;-142.25;100.00;58004.16;5009104;28;20278;-62
2022/11/24 04:13:20;;;;;;;408.17;142.03;;;;;;;-142.25;100.00;58004.16;4997977;28;20117;-62
2022/11/24 04:15:46;;;;;;;408.50;144.23;;;;;;;-142.25;100.00;58004.16;4986870;28;20278;-61
2022/11/24 04:18:12;;;;;;;409.17;139.80;;;;;;;-142.25;100.00;58004.16;4992404;28;20779;-62
2022/11/24 04:20:39;;;;;;;407.10;136.30;;;;;;;-142.25;100.00;58004.16;4991565;28;20461;-61
2022/11/24 04:23:05;;;;;;;405.57;135.10;;;;;;;-142.25;100.00;58004.16;4994393;28;20362;-60
2022/11/24 04:25:31;;;;;;;407.47;139.63;;;;;;;-142.25;100.00;58004.16;5009031;28;21229;-61
2022/11/24 04:27:57;;;;;;;408.63;142.50;;;;;;;-142.25;100.00;58004.16;4992591;28;20269;-61
2022/11/24 04:30:24;;;;;;;406.37;134.90;;;;;;;-142.25;100.00;58004.16;4991952;28;20074;-62
2022/11/24 04:32:50;;;;;;;406.77;138.47;;;;;;;-142.25;100.00;58004.16;4992101;28;20287;-61
2022/11/24 04:35:16;;;;;;;407.03;140.23;;;;;;;-142.25;100.00;58004.16;4988977;28;20289;-62
2022/11/24 04:37:42;;;;;;;407.47;139.10;;;;;;;-142.25;100.00;58004.16;4991944;28;20673;-62
2022/11/24 04:40:10;;;;;;;406.83;137.20;;;;;;;-142.25;100.00;58004.16;4991710;28;20410;-62
2022/11/24 04:42:36;;;;;;;408.47;143.73;;;;;;;-142.25;100.00;58004.16;4992534;28;20320;-62
2022/11/24 04:45:02;;;;;;;406.37;137.20;;;;;;;-142.25;100.00;58004.16;4992360;28;20344;-61
2022/11/24 04:47:27;;;;;;;406.77;136.70;;;;;;;-142.25;100.00;58004.16;4992618;28;20293;-62
2022/11/24 04:49:53;;;;;;;405.27;134.20;;;;;;;-142.25;100.00;58004.16;4993233;28;20288;-62
2022/11/24 04:52:21;;;;;;;405.10;136.10;;;;;;;-142.25;100.00;58004.16;4992798;28;20053;-62
2022/11/24 04:54:48;;;;;;;404.03;133.10;;;;;;;-142.25;100.00;58004.16;4991888;28;20053;-61
2022/11/24 04:57:22;;;;;;;404.57;135.57;;;;;;;-142.25;100.00;58004.16;4991690;28;20289;-61
2022/11/24 04:59:52;;;;;;;403.75;134.57;;;;;;;-142.25;100.00;58004.16;4992891;28;20328;-61
2022/11/24 05:02:18;;;;;;;401.93;131.20;;;;;;;-142.25;100.00;58004.16;4993268;28;20174;-61
2022/11/24 05:04:45;;;;;;;403.43;131.90;;;;;;;-142.25;100.00;58004.16;4995187;28;20380;-62
2022/11/24 05:07:12;;;;;;;405.07;134.63;;;;;;;-142.25;100.00;58004.16;4989932;28;20760;-61
2022/11/24 05:10:33;;;;;;;403.80;134.43;;;;;;;-142.25;100.00;58004.16;4993441;28;20392;-62
2022/11/24 05:12:23;;;;;;;403.55;133.43;;;;;;;-142.25;100.00;58004.16;4994235;28;20822;-61
2022/11/24 05:14:49;;;;;;;404.90;133.70;;;;;;;-142.25;100.00;58004.16;4993060;28;20484;-61
2022/11/24 05:17:15;;;;;;;405.50;134.17;;;;;;;-142.25;100.00;58004.16;4992096;28;20050;-62
2022/11/24 05:19:40;;;;;;;405.70;136.33;;;;;;;-142.25;100.00;58004.16;4990722;28;20591;-61
2022/11/24 05:22:06;;;;;;;404.97;136.13;;;;;;;-142.25;100.00;58004.16;4991635;28;20046;-62
2022/11/24 05:24:31;;;;;;;406.70;138.50;;;;;;;-142.25;100.00;58004.16;4991104;28;20151;-61
2022/11/24 05:26:57;;;;;;;405.27;137.07;;;;;;;-142.25;100.00;58004.16;4992977;28;20104;-61
2022/11/24 05:29:23;;;;;;;407.47;138.00;;;;;;;-142.25;100.00;58004.16;4990321;28;20053;-61
2022/11/24 05:31:49;;;;;;;408.03;140.17;;;;;;;-142.25;100.00;58004.16;4990329;28;20347;-61
2022/11/24 05:34:14;;;;;;;409.40;141.37;;;;;;;-142.25;100.00;58004.16;4991354;28;20129;-61
2022/11/24 05:36:52;;;;;;;409.77;139.20;;;;;;;-142.25;100.00;58004.16;4973670;28;20074;-62
2022/11/24 05:39:18;;;;;;;408.27;142.17;;;;;;;-142.25;100.00;58004.16;4990673;28;20086;-60
2022/11/24 05:41:44;;;;;;;407.57;141.27;;;;;;;-142.25;100.00;58004.16;4989960;28;20323;-62
2022/11/24 05:44:10;;;;;;;410.40;149.47;;;;;;;-142.25;100.00;58004.16;4982266;28;21379;-61
2022/11/24 05:46:36;;;;;;;410.50;150.03;;;;;;;-142.25;100.00;58004.16;4971396;28;20296;-61
2022/11/24 05:49:02;;;;;;;409.07;145.30;;;;;;;-142.25;100.00;58004.16;4991636;28;20053;-63
2022/11/24 05:51:28;;;;;;;405.03;138.17;;;;;;;-142.25;100.00;58004.16;4989951;28;20050;-61
2022/11/24 05:53:53;;;;;;;405.50;136.63;;;;;;;-142.25;100.00;58004.16;4990749;28;20740;-61
2022/11/24 05:56:24;;;;;;;410.50;146.37;;;;;;;-142.25;100.00;58004.16;4991520;28;20065;-61
2022/11/24 05:58:49;;;;;;;407.27;142.83;;;;;;;-142.25;100.00;58004.16;4990348;28;20042;-60
2022/11/24 06:01:15;;;;;;;406.60;141.23;;;;;;;-142.25;100.00;58004.16;4990161;28;20280;-61
2022/11/24 06:03:40;;;;;;;412.20;150.40;;;;;;;-142.25;100.00;58004.16;4990171;28;20121;-64
2022/11/24 06:06:06;;;;;;;407.23;139.37;;;;;;;-142.25;100.00;58004.16;4983006;28;20045;-57
2022/11/24 06:08:32;;;;;;;408.80;143.23;;;;;;;-142.25;100.00;58004.16;4990537;28;20084;-59
2022/11/24 06:11:16;;;;;;;410.87;150.97;;;;;;;-142.25;100.00;58004.16;4988600;28;20713;-63
2022/11/24 06:13:44;;;;;;;409.53;146.47;;;;;;;-142.25;100.00;58004.16;4985102;28;20312;-62
2022/11/24 06:16:10;;;;;;;410.20;146.53;;;;;;;-142.25;100.00;58004.16;4987115;28;20278;-62
2022/11/24 06:18:36;;;;;;;409.80;144.87;;;;;;;-142.25;100.00;58004.16;4992537;28;20327;-61
2022/11/24 06:21:03;;;;;;;408.33;139.70;;;;;;;-142.25;100.00;58004.16;4991218;28;20293;-61
2022/11/24 06:23:29;;;;;;;412.67;152.93;;;;;;;-142.25;100.00;58004.16;4987218;28;20133;-60
2022/11/24 06:25:57;;;;;;;412.27;151.33;;;;;;;-142.25;100.00;58004.16;4984255;28;20284;-62
2022/11/24 06:28:23;;;;;;;410.03;148.20;;;;;;;-142.25;100.00;58004.16;4983253;28;20050;-65
2022/11/24 06:30:49;;;;;;;412.43;147.47;;;;;;;-142.25;100.00;58004.16;4987715;28;20289;-61
2022/11/24 06:33:15;;;;;;;411.63;145.77;;;;;;;-142.25;100.00;58004.16;4989141;28;20721;-61
2022/11/24 06:35:53;;;;;;;410.27;146.50;;;;;;;-142.25;100.00;58004.16;4990203;28;20293;-61
2022/11/24 06:38:18;;;;;;;411.40;148.20;;;;;;;-142.25;100.00;58004.16;4990676;28;20323;-62
2022/11/24 06:40:45;;;;;;;413.47;149.20;;;;;;;-142.25;100.00;58004.16;4990820;28;20376;-62
2022/11/24 06:43:11;;;;;;;411.60;151.63;;;;;;;-142.25;100.00;58004.16;4989891;28;20089;-63
2022/11/24 06:45:36;;;;;;;411.23;149.50;;;;;;;-142.25;100.00;58004.16;5003180;28;20300;-61
2022/11/24 06:48:02;;;;;;;409.83;145.87;;;;;;;-142.25;100.00;58004.16;5003412;28;20053;-62
2022/11/24 06:50:27;;;;;;;408.63;143.70;;;;;;;-142.25;100.00;58004.16;4988127;28;20054;-61
2022/11/24 06:52:53;;;;;;;410.90;150.50;;;;;;;-142.25;100.00;58004.16;5002627;28;20069;-62
2022/11/24 06:55:19;;;;;;;409.47;146.83;;;;;;;-142.25;100.00;58004.16;4989827;28;20051;-61
2022/11/24 06:57:45;;;;;;;408.87;147.27;;;;;;;-142.25;100.00;58004.16;4989550;28;20054;-65
2022/11/24 07:00:12;;;;;;;410.37;149.47;;;;;;;-142.25;100.00;58004.16;4989255;28;20109;-62
2022/11/24 07:02:38;;;;;;;412.30;154.27;;;;;;;-142.25;100.00;58004.16;4988979;28;20297;-62
2022/11/24 07:05:03;;;;;;;408.67;145.70;;;;;;;-142.25;100.00;58004.16;4989257;28;20305;-62
2022/11/24 07:07:29;;;;;;;410.67;154.13;;;;;;;-142.25;100.00;58004.16;4982000;28;20038;-60
2022/11/24 07:09:55;;;;;;;411.37;148.33;;;;;;;-142.25;100.00;58004.16;4984721;28;20153;-60
2022/11/24 07:12:20;;;;;;;412.03;154.27;;;;;;;-142.25;100.00;58004.16;4987331;28;20553;-61
2022/11/24 07:14:46;;;;;;;409.27;149.47;;;;;;;-142.25;100.00;58004.16;4984122;28;20046;-61
2022/11/24 07:17:12;;;;;;;409.10;146.43;;;;;;;-142.25;100.00;58004.16;4986218;28;20450;-61
2022/11/24 07:19:37;;;;;;;408.80;145.30;;;;;;;-142.25;100.00;58004.16;4992932;28;20050;-61
2022/11/24 07:22:03;;;;;;;411.27;151.37;;;;;;;-142.25;100.00;58004.16;4992436;28;20133;-61
2022/11/24 07:24:29;;;;;;;411.47;152.80;;;;;;;-142.25;100.00;58004.16;5002525;28;20133;-61
2022/11/24 07:26:55;;;;;;;411.67;151.57;;;;;;;-142.25;100.00;58004.16;4993023;28;20794;-62
2022/11/24 07:29:21;;;;;;;408.97;146.97;;;;;;;-142.25;100.00;58004.16;4993868;28;20088;-62
2022/11/24 07:31:46;;;;;;;411.80;152.57;;;;;;;-142.25;100.00;58004.16;4990449;28;20285;-61
2022/11/24 07:34:13;;;;;;;410.93;150.30;;;;;;;-142.25;100.00;58004.16;4994374;28;20523;-61
2022/11/24 07:36:39;;;;;;;412.03;151.77;;;;;;;-142.25;100.00;58004.16;4993594;28;20030;-61
2022/11/24 07:39:06;;;;;;;411.17;149.77;;;;;;;-142.25;100.00;58004.16;4990044;28;20344;-62
2022/11/24 07:41:31;;;;;;;412.80;154.47;;;;;;;-142.25;100.00;58004.16;4993640;28;20865;-62
2022/11/24 07:43:57;;;;;;;414.10;159.43;;;;;;;-142.25;100.00;58004.16;4990121;28;20763;-61
2022/11/24 07:46:23;;;;;;;413.53;157.90;;;;;;;-142.25;100.00;58004.16;4986867;28;20050;-61
2022/11/24 07:48:48;;;;;;;410.77;149.57;;;;;;;-142.25;100.00;58004.16;4992120;28;20714;-60
2022/11/24 07:51:14;;;;;;;410.87;149.30;;;;;;;-142.25;100.00;58004.16;4994005;28;20052;-62
2022/11/24 07:53:41;;;;;;;411.20;152.17;;;;;;;-142.25;100.00;58004.16;4988707;28;20501;-59
2022/11/24 07:56:08;;;;;;;409.00;145.60;;;;;;;-142.25;100.00;58004.16;4989983;28;20343;-61
2022/11/24 07:58:36;;;;;;;411.90;150.00;;;;;;;-142.25;100.00;58004.16;4989652;28;20061;-61
2022/11/24 08:01:13;;;;;;;409.67;145.93;;;;;;;-142.25;100.00;58004.16;4992615;28;20297;-60
2022/11/24 08:03:39;;;;;;;414.97;154.33;;;;;;;-142.25;100.00;58004.16;4990353;28;20435;-61
2022/11/24 08:06:05;;;;;;;409.07;146.03;;;;;;;-142.25;100.00;58004.16;4991235;28;20304;-60
2022/11/24 08:08:34;;;;;;;409.83;148.03;;;;;;;-142.25;100.00;58004.16;4991739;28;20281;-60
2022/11/24 08:11:12;;;;;;;408.07;142.73;;;;;;;-142.25;100.00;58004.16;4992313;28;20787;-60
2022/11/24 08:13:39;;;;;;;408.87;144.00;;;;;;;-142.25;100.00;58004.16;4992104;28;20277;-60
2022/11/24 08:16:10;;;;;;;412.23;149.20;;;;;;;-142.25;100.00;58004.16;4988106;28;20277;-61
2022/11/24 08:18:36;;;;;;;409.10;143.60;;;;;;;-142.25;100.00;58004.16;5001144;28;20289;-60
2022/11/24 08:21:02;;;;;;;410.07;146.50;;;;;;;-142.25;100.00;58004.16;5005400;28;20653;-61
2022/11/24 08:23:28;;;;;;;409.33;145.53;;;;;;;-142.25;100.00;58004.16;4992634;28;20509;-62
2022/11/24 08:25:55;;;;;;;408.50;145.30;;;;;;;-142.25;100.00;58004.16;4993465;28;20312;-61
2022/11/24 08:28:21;;;;;;;409.67;145.63;;;;;;;-142.25;100.00;58004.16;4991546;28;20663;-61
2022/11/24 08:30:47;;;;;;;411.23;151.27;;;;;;;-142.25;100.00;58004.16;4989509;28;20739;-61
2022/11/24 08:33:13;;;;;;;409.90;147.80;;;;;;;-142.25;100.00;58004.16;4992090;28;20276;-61
2022/11/24 08:35:38;;;;;;;409.13;146.87;;;;;;;-142.25;100.00;58004.16;4994167;28;20107;-61
2022/11/24 08:38:05;;;;;;;409.03;144.07;;;;;;;-142.25;100.00;58004.16;4992121;28;20065;-61
2022/11/24 08:40:31;;;;;;;411.43;149.70;;;;;;;-142.25;100.00;58004.16;4991874;28;20245;-61
2022/11/24 08:42:58;;;;;;;412.63;149.43;;;;;;;-142.25;100.00;58004.16;4994112;28;21155;-61
2022/11/24 08:45:24;;;;;;;411.10;148.60;;;;;;;-142.25;100.00;58004.16;4994519;28;20733;-62
2022/11/24 08:47:54;;;;;;;413.00;155.00;;;;;;;-142.25;100.00;58004.16;4991418;28;20288;-61
2022/11/24 08:50:24;;;;;;;415.57;147.90;;;;;;;-142.25;100.00;58004.16;4992848;28;20076;-60
2022/11/24 08:52:51;;;;;;;414.37;155.43;;;;;;;-142.25;100.00;58004.16;4989567;28;20324;-60
2022/11/24 08:55:17;;;;;;;413.23;152.80;;;;;;;-142.25;100.00;58004.16;5006964;28;20293;-59
2022/11/24 08:57:43;;;;;;;411.47;150.77;;;;;;;-142.25;100.00;58004.16;4992074;28;20649;-61
2022/11/24 09:00:09;;;;;;;416.37;154.50;;;;;;;-142.25;100.00;58004.16;4990866;28;20446;-60
2022/11/24 09:02:34;;;;;;;417.17;160.07;;;;;;;-142.25;100.00;58004.16;4990193;28;20615;-60
2022/11/24 09:05:00;;;;;;;416.43;162.03;;;;;;;-142.25;100.00;58004.16;5002808;28;20761;-61
2022/11/24 09:07:26;;;;;;;418.13;166.87;;;;;;;-142.25;100.00;58004.16;4989929;28;20129;-60
2022/11/24 09:09:52;;;;;;;418.53;167.60;;;;;;;-142.25;100.00;58004.16;4985637;28;20518;-60
2022/11/24 09:12:17;;;;;;;415.23;161.33;;;;;;;-142.25;100.00;58004.16;4989006;28;20042;-61
2022/11/24 09:14:43;;;;;;;417.43;166.87;;;;;;;-142.25;100.00;58004.16;4991501;28;20045;-60
2022/11/24 09:17:09;;;;;;;418.60;165.50;;;;;;;-142.25;100.00;58004.16;4991308;28;20050;-59
2022/11/24 09:19:34;;;;;;;417.87;165.90;;;;;;;-142.25;100.00;58004.16;4996389;28;20153;-60
2022/11/24 09:22:00;;;;;;;421.67;170.07;;;;;;;-142.25;100.00;58004.16;4985534;28;20038;-60
2022/11/24 09:24:25;;;;;;;417.17;161.70;;;;;;;-142.25;100.00;58004.16;4991614;28;20078;-60
2022/11/24 09:26:52;;;;;;;418.27;169.33;;;;;;;-142.25;100.00;58004.16;4993238;28;20137;-60
2022/11/24 09:29:18;;;;;;;419.67;167.87;;;;;;;-142.25;100.00;58004.16;4989025;28;20592;-60
2022/11/24 09:31:44;;;;;;;423.50;165.90;;;;;;;-142.25;100.00;58004.16;4990530;28;20283;-60
2022/11/24 09:34:14;;;;;;;417.97;168.47;;;;;;;-142.25;100.00;58004.16;5006758;28;20273;-60
2022/11/24 09:36:40;;;;;;;419.93;170.00;;;;;;;-142.25;100.00;58004.16;5005191;28;20678;-61
2022/11/24 09:39:06;;;;;;;422.37;174.03;;;;;;;-142.25;100.00;58004.16;4989121;28;20775;-61
2022/11/24 09:42:01;;;;;;;422.00;179.63;;;;;;;-142.25;100.00;58004.16;4998518;28;20289;-61
2022/11/24 09:44:39;;;;;;;423.77;174.23;;;;;;;-142.25;100.00;58004.16;4985927;28;20433;-64
2022/11/24 09:47:35;;;;;;;421.97;175.63;;;;;;;-142.25;100.00;58004.16;4990033;28;20815;-61
2022/11/24 09:50:02;;;;;;;422.80;177.87;;;;;;;-142.25;100.00;58004.16;4989984;28;20397;-60
2022/11/24 09:52:43;;;;;;;423.77;181.33;;;;;;;-142.25;100.00;58004.16;4991013;28;20274;-60
2022/11/24 09:55:22;;;;;;;424.53;184.07;;;;;;;-142.25;100.00;58004.16;4990374;28;20289;-61
2022/11/24 09:57:55;;;;;;;426.27;191.90;;;;;;;-142.25;100.00;58004.16;4990006;28;20309;-62
2022/11/24 10:00:20;;;;;;;425.43;184.30;;;;;;;-142.25;100.00;58004.16;4989252;28;20810;-61
2022/11/24 10:02:48;;;;;;;426.97;187.73;;;;;;;-142.25;100.00;58004.16;4990376;28;20355;-60
2022/11/24 10:05:14;;;;;;;425.30;186.00;;;;;;;-142.25;100.00;58004.16;4987611;28;20100;-61
2022/11/24 10:07:59;;;;;;;431.00;196.70;;;;;;;-142.25;100.00;58004.16;4984754;28;20293;-62
2022/11/24 10:10:33;;;;;;;424.13;178.85;;;;;;;-142.25;100.00;58004.16;4989239;28;20116;-62
2022/11/24 10:13:27;;;;;;;429.15;183.45;;;;;;;-142.25;100.00;58004.16;4997506;28;20030;-61
2022/11/24 10:16:36;;;;;;;428.20;196.13;;;;;;;-142.25;100.00;58004.16;4987805;28;20046;-61
2022/11/24 10:19:31;;;;;;;425.30;185.07;;;;;;;-142.25;100.00;58004.16;4926721;29;20434;-62
2022/11/24 10:22:11;;;;;;;426.00;188.60;;;;;;;-142.25;100.00;58004.16;4933847;29;20311;-62
2022/11/24 10:25:00;;;;;;;430.83;195.87;;;;;;;-142.25;100.00;58004.16;4927446;29;20892;-60
2022/11/24 10:27:33;;;;;;;424.47;185.37;;;;;;;-142.25;100.00;58004.16;4911688;29;20842;-61
2022/11/24 10:30:00;;;;;;;424.07;189.13;;;;;;;-142.25;100.00;58004.16;4933082;29;20497;-62
2022/11/24 10:32:30;;;;;;;426.47;185.80;;;;;;;-142.25;100.00;58004.16;4913233;29;21178;-61
2022/11/24 10:35:05;;;;;;;425.87;187.87;;;;;;;-142.25;100.00;58004.16;4932437;29;20750;-62
2022/11/24 10:37:42;;;;;;;428.90;194.93;;;;;;;-142.25;100.00;58004.16;4934156;29;20291;-62
2022/11/24 10:40:41;;;;;;;424.90;187.52;;;;;;;-142.25;100.00;58004.16;4932025;29;20291;-62
2022/11/24 10:43:10;;;;;;;430.57;192.43;;;;;;;-142.25;100.00;58004.16;4931396;29;20471;-59
2022/11/24 10:45:38;;;;;;;427.67;192.63;;;;;;;-142.25;100.00;58004.16;4930340;29;20315;-63